Ardmore, OK

8:36 AM CDT on October 31, 2014 (GMT -0500)
Pauls Valley Municipal | Change Station
CLOSE
Current Station
Airport
Location: Pauls Valley,
Elevation: 968 ft
Nearby Weather Stations
Active Advisory: Freeze Warning

Elev 968 ft 34.71 °N, 97.22 °W | Updated 21 minutes ago

Clear
Clear
48 °F
Feels Like 48 °F
N
15
Wind Variable Wind from North
Gusts 18 mph

Today
High -- | Low -- °F
--% Chance of Precip.
Yesterday
High -- | Low -- °F
Precip. -- in
7:47 AM 6:36 PM
First Quarter, 55% visible
Pressure 30.34 in
Visibility 10.0 miles
Clouds Clear
Dew Point 39 °F
Humidity 71%
Rainfall 0.00 in
Snow Depth Not available.
UV 0 out of 12
Pollen 4.00 out of 12
Air Quality Not available.
Flu Activity Not available.
METAR KPVJ 311315Z AUTO 01013G16KT 10SM CLR 09/04 A3034 RMK AO2 T00870037

More Conditions Fewer Conditions

Pressure 30.34 in
Visibility 10.0 miles
Clouds Clear
Dew Point 39 °F
Humidity 71%
Rainfall 0.00 in
Snow Depth Not available.
UV 0 out of 12
Pollen 4.00 out of 12
Air Quality Not available.
Flu Activity Not available.
METAR KPVJ 311315Z AUTO 01013G16KT 10SM CLR 09/04 A3034 RMK AO2 T00870037

More Conditions Fewer Conditions

10-Day Weather Forecast

Almanac

Astronomy

Oct. 31, 2014 Rise Set
Actual Time
Civil Twilight
Nautical Twilight
Astronomical Twilight
Moon
Length of Visible Light
Length of Day
Tomorrow will be .
, % of the Moon is Illuminated

Today's Extremes

State Highs State Lows

Community

WunderPhotos

Upload Photos

1,766,610 photos uploaded!

WunderBlogs® & News

Nearby

Air Quality

  Air Quality AQ Index Pollutant
Not available.

Snow Depth

Station Depth Elevation

Earthquake Activity

City Distance Mag. Time & Date
Minimum magnitude displayed is 2.5.

Coastal Water Temperatures

Place Temperature

Nearby Weather Stations